sensor_id;sensor_type;location;lat;lon;timestamp;P1;durP1;ratioP1;P2;durP2;ratioP2
30888;SDS011;51092;50.874;7.024;2022-08-11T00:00:12;5.82;;;3.58;;
30888;SDS011;51092;50.874;7.024;2022-08-11T00:01:15;7.13;;;4.03;;
30888;SDS011;51092;50.874;7.024;2022-08-11T00:02:26;5.60;;;3.60;;
30888;SDS011;51092;50.874;7.024;2022-08-11T00:03:33;7.65;;;3.97;;
30888;SDS011;51092;50.874;7.024;2022-08-11T00:04:35;7.32;;;3.90;;
30888;SDS011;51092;50.874;7.024;2022-08-11T00:05:43;5.60;;;3.92;;
30888;SDS011;51092;50.874;7.024;2022-08-11T00:06:46;6.32;;;3.67;;
30888;SDS011;51092;50.874;7.024;2022-08-11T00:07:50;6.88;;;3.90;;
30888;SDS011;51092;50.874;7.024;2022-08-11T00:08:54;6.03;;;3.80;;
30888;SDS011;51092;50.874;7.024;2022-08-11T00:09:58;7.35;;;4.30;;
30888;SDS011;51092;50.874;7.024;2022-08-11T00:11:02;6.40;;;3.88;;
30888;SDS011;51092;50.874;7.024;2022-08-11T00:12:12;10.85;;;3.53;;
30888;SDS011;51092;50.874;7.024;2022-08-11T00:13:14;5.75;;;3.75;;
30888;SDS011;51092;50.874;7.024;2022-08-11T00:14:18;4.72;;;3.47;;
30888;SDS011;51092;50.874;7.024;2022-08-11T00:15:22;7.85;;;3.67;;
30888;SDS011;51092;50.874;7.024;2022-08-11T00:16:25;3.80;;;2.95;;
30888;SDS011;51092;50.874;7.024;2022-08-11T00:17:28;4.60;;;3.53;;
30888;SDS011;51092;50.874;7.024;2022-08-11T00:18:37;4.95;;;3.83;;
30888;SDS011;51092;50.874;7.024;2022-08-11T00:19:41;7.95;;;4.03;;
30888;SDS011;51092;50.874;7.024;2022-08-11T00:20:46;6.60;;;3.50;;
30888;SDS011;51092;50.874;7.024;2022-08-11T00:21:48;5.65;;;3.97;;
30888;SDS011;51092;50.874;7.024;2022-08-11T00:22:52;5.60;;;3.40;;
30888;SDS011;51092;50.874;7.024;2022-08-11T00:24:00;4.82;;;3.22;;
30888;SDS011;51092;50.874;7.024;2022-08-11T00:25:07;5.50;;;3.10;;
30888;SDS011;51092;50.874;7.024;2022-08-11T00:26:11;5.32;;;3.75;;
30888;SDS011;51092;50.874;7.024;2022-08-11T00:27:15;6.72;;;3.63;;
30888;SDS011;51092;50.874;7.024;2022-08-11T00:28:23;8.10;;;3.75;;
30888;SDS011;51092;50.874;7.024;2022-08-11T00:29:27;4.47;;;3.30;;
30888;SDS011;51092;50.874;7.024;2022-08-11T00:30:35;5.05;;;3.35;;
30888;SDS011;51092;50.874;7.024;2022-08-11T00:31:42;6.13;;;3.63;;
30888;SDS011;51092;50.874;7.024;2022-08-11T00:32:51;10.07;;;3.92;;
30888;SDS011;51092;50.874;7.024;2022-08-11T00:33:57;8.48;;;3.92;;
30888;SDS011;51092;50.874;7.024;2022-08-11T00:35:00;6.05;;;3.38;;
30888;SDS011;51092;50.874;7.024;2022-08-11T00:36:04;4.82;;;3.85;;
30888;SDS011;51092;50.874;7.024;2022-08-11T00:37:09;5.22;;;3.35;;
30888;SDS011;51092;50.874;7.024;2022-08-11T00:38:17;6.45;;;3.78;;
30888;SDS011;51092;50.874;7.024;2022-08-11T00:39:25;6.65;;;4.22;;
30888;SDS011;51092;50.874;7.024;2022-08-11T00:40:32;3.80;;;3.40;;
30888;SDS011;51092;50.874;7.024;2022-08-11T00:41:41;5.53;;;3.53;;
30888;SDS011;51092;50.874;7.024;2022-08-11T00:44:11;9.05;;;3.70;;
30888;SDS011;51092;50.874;7.024;2022-08-11T00:45:31;4.65;;;3.55;;
30888;SDS011;51092;50.874;7.024;2022-08-11T00:46:41;6.30;;;3.63;;
30888;SDS011;51092;50.874;7.024;2022-08-11T00:48:00;5.03;;;3.67;;
30888;SDS011;51092;50.874;7.024;2022-08-11T00:49:08;4.45;;;3.47;;
30888;SDS011;51092;50.874;7.024;2022-08-11T00:50:17;5.78;;;3.20;;
30888;SDS011;51092;50.874;7.024;2022-08-11T00:51:25;6.38;;;3.50;;
30888;SDS011;51092;50.874;7.024;2022-08-11T00:52:47;5.53;;;3.33;;
30888;SDS011;51092;50.874;7.024;2022-08-11T00:54:02;6.75;;;3.35;;
30888;SDS011;51092;50.874;7.024;2022-08-11T00:56:48;6.30;;;3.50;;
30888;SDS011;51092;50.874;7.024;2022-08-11T00:58:28;7.13;;;3.75;;
30888;SDS011;51092;50.874;7.024;2022-08-11T01:00:05;7.35;;;3.80;;
30888;SDS011;51092;50.874;7.024;2022-08-11T01:01:18;6.95;;;4.00;;
30888;SDS011;51092;50.874;7.024;2022-08-11T01:02:38;4.10;;;3.63;;
30888;SDS011;51092;50.874;7.024;2022-08-11T01:03:53;6.05;;;3.58;;
30888;SDS011;51092;50.874;7.024;2022-08-11T01:05:23;7.50;;;3.95;;
30888;SDS011;51092;50.874;7.024;2022-08-11T01:10:13;4.72;;;3.63;;
30888;SDS011;51092;50.874;7.024;2022-08-11T01:12:03;5.28;;;3.60;;
30888;SDS011;51092;50.874;7.024;2022-08-11T01:13:18;4.30;;;3.80;;
30888;SDS011;51092;50.874;7.024;2022-08-11T01:14:57;6.28;;;3.63;;
30888;SDS011;51092;50.874;7.024;2022-08-11T01:16:30;5.65;;;4.18;;
30888;SDS011;51092;50.874;7.024;2022-08-11T01:19:39;5.00;;;3.35;;
30888;SDS011;51092;50.874;7.024;2022-08-11T01:21:04;10.25;;;4.20;;
30888;SDS011;51092;50.874;7.024;2022-08-11T01:22:33;6.55;;;3.60;;
30888;SDS011;51092;50.874;7.024;2022-08-11T01:24:18;6.97;;;3.60;;
30888;SDS011;51092;50.874;7.024;2022-08-11T01:31:25;10.07;;;4.43;;
30888;SDS011;51092;50.874;7.024;2022-08-11T01:34:46;5.32;;;3.55;;
30888;SDS011;51092;50.874;7.024;2022-08-11T01:41:30;5.10;;;3.83;;
30888;SDS011;51092;50.874;7.024;2022-08-11T01:43:08;9.05;;;4.28;;
30888;SDS011;51092;50.874;7.024;2022-08-11T01:45:08;8.38;;;3.38;;
30888;SDS011;51092;50.874;7.024;2022-08-11T01:46:24;5.95;;;3.85;;
30888;SDS011;51092;50.874;7.024;2022-08-11T01:47:31;4.78;;;4.05;;
30888;SDS011;51092;50.874;7.024;2022-08-11T01:48:56;4.70;;;3.35;;
30888;SDS011;51092;50.874;7.024;2022-08-11T01:50:15;6.40;;;3.83;;
30888;SDS011;51092;50.874;7.024;2022-08-11T01:51:23;3.97;;;3.60;;
30888;SDS011;51092;50.874;7.024;2022-08-11T01:52:42;5.30;;;3.90;;
30888;SDS011;51092;50.874;7.024;2022-08-11T01:53:56;7.32;;;4.10;;
30888;SDS011;51092;50.874;7.024;2022-08-11T01:55:06;5.88;;;3.90;;
30888;SDS011;51092;50.874;7.024;2022-08-11T01:56:19;7.10;;;3.83;;
30888;SDS011;51092;50.874;7.024;2022-08-11T01:57:36;5.35;;;3.88;;
30888;SDS011;51092;50.874;7.024;2022-08-11T01:58:44;6.97;;;3.80;;
30888;SDS011;51092;50.874;7.024;2022-08-11T01:59:51;7.63;;;4.15;;
30888;SDS011;51092;50.874;7.024;2022-08-11T02:01:01;4.75;;;3.58;;
30888;SDS011;51092;50.874;7.024;2022-08-11T02:02:26;7.00;;;4.40;;
30888;SDS011;51092;50.874;7.024;2022-08-11T02:03:54;5.07;;;3.63;;
30888;SDS011;51092;50.874;7.024;2022-08-11T02:05:02;8.55;;;4.20;;
30888;SDS011;51092;50.874;7.024;2022-08-11T02:06:13;5.13;;;3.90;;
30888;SDS011;51092;50.874;7.024;2022-08-11T02:07:49;5.90;;;4.18;;
30888;SDS011;51092;50.874;7.024;2022-08-11T02:08:58;6.78;;;3.85;;
30888;SDS011;51092;50.874;7.024;2022-08-11T02:10:11;6.45;;;4.00;;
30888;SDS011;51092;50.874;7.024;2022-08-11T02:11:40;8.82;;;4.45;;
30888;SDS011;51092;50.874;7.024;2022-08-11T02:12:49;6.63;;;4.20;;
30888;SDS011;51092;50.874;7.024;2022-08-11T02:13:55;9.68;;;3.70;;
30888;SDS011;51092;50.874;7.024;2022-08-11T02:15:03;10.98;;;4.00;;
30888;SDS011;51092;50.874;7.024;2022-08-11T02:16:15;5.53;;;3.70;;
30888;SDS011;51092;50.874;7.024;2022-08-11T02:17:22;7.05;;;4.28;;
30888;SDS011;51092;50.874;7.024;2022-08-11T02:18:42;4.97;;;3.63;;
30888;SDS011;51092;50.874;7.024;2022-08-11T02:20:22;7.60;;;3.55;;
30888;SDS011;51092;50.874;7.024;2022-08-11T02:23:24;6.13;;;4.15;;
30888;SDS011;51092;50.874;7.024;2022-08-11T02:24:43;5.45;;;4.15;;
30888;SDS011;51092;50.874;7.024;2022-08-11T02:25:54;5.72;;;3.58;;
30888;SDS011;51092;50.874;7.024;2022-08-11T02:27:06;8.43;;;3.88;;
30888;SDS011;51092;50.874;7.024;2022-08-11T02:28:17;7.43;;;3.75;;
30888;SDS011;51092;50.874;7.024;2022-08-11T02:29:37;7.13;;;3.45;;
30888;SDS011;51092;50.874;7.024;2022-08-11T02:30:51;4.93;;;3.63;;
30888;SDS011;51092;50.874;7.024;2022-08-11T02:32:23;5.97;;;3.80;;
30888;SDS011;51092;50.874;7.024;2022-08-11T02:34:05;8.25;;;4.30;;
30888;SDS011;51092;50.874;7.024;2022-08-11T02:35:15;6.07;;;3.97;;
30888;SDS011;51092;50.874;7.024;2022-08-11T02:36:24;5.32;;;4.05;;
30888;SDS011;51092;50.874;7.024;2022-08-11T02:37:36;5.65;;;3.65;;
30888;SDS011;51092;50.874;7.024;2022-08-11T02:38:48;6.65;;;4.05;;
30888;SDS011;51092;50.874;7.024;2022-08-11T02:40:03;5.57;;;4.10;;
30888;SDS011;51092;50.874;7.024;2022-08-11T02:41:13;5.60;;;3.63;;
30888;SDS011;51092;50.874;7.024;2022-08-11T02:42:39;5.07;;;4.40;;
30888;SDS011;51092;50.874;7.024;2022-08-11T02:43:55;6.00;;;4.32;;
30888;SDS011;51092;50.874;7.024;2022-08-11T02:45:11;6.18;;;3.70;;
30888;SDS011;51092;50.874;7.024;2022-08-11T02:46:30;5.68;;;3.88;;
30888;SDS011;51092;50.874;7.024;2022-08-11T02:47:45;9.02;;;4.18;;
30888;SDS011;51092;50.874;7.024;2022-08-11T02:49:16;6.30;;;3.92;;
30888;SDS011;51092;50.874;7.024;2022-08-11T02:52:02;10.63;;;3.85;;
30888;SDS011;51092;50.874;7.024;2022-08-11T02:53:08;6.10;;;3.80;;
30888;SDS011;51092;50.874;7.024;2022-08-11T02:54:20;6.68;;;4.47;;
30888;SDS011;51092;50.874;7.024;2022-08-11T02:55:29;10.10;;;4.47;;
30888;SDS011;51092;50.874;7.024;2022-08-11T02:56:38;8.05;;;4.30;;
30888;SDS011;51092;50.874;7.024;2022-08-11T02:57:47;5.55;;;4.00;;
30888;SDS011;51092;50.874;7.024;2022-08-11T02:58:55;5.07;;;4.22;;
30888;SDS011;51092;50.874;7.024;2022-08-11T03:00:21;4.85;;;3.78;;
30888;SDS011;51092;50.874;7.024;2022-08-11T03:01:29;6.28;;;4.75;;
30888;SDS011;51092;50.874;7.024;2022-08-11T03:03:00;6.13;;;5.00;;
30888;SDS011;51092;50.874;7.024;2022-08-11T03:04:17;9.27;;;4.90;;
30888;SDS011;51092;50.874;7.024;2022-08-11T03:05:26;6.85;;;5.25;;
30888;SDS011;51092;50.874;7.024;2022-08-11T03:06:40;7.47;;;4.93;;
30888;SDS011;51092;50.874;7.024;2022-08-11T03:07:54;8.35;;;5.13;;
30888;SDS011;51092;50.874;7.024;2022-08-11T03:09:08;8.27;;;5.32;;
30888;SDS011;51092;50.874;7.024;2022-08-11T03:10:19;7.72;;;4.78;;
30888;SDS011;51092;50.874;7.024;2022-08-11T03:11:38;6.82;;;4.30;;
30888;SDS011;51092;50.874;7.024;2022-08-11T03:13:07;5.97;;;4.32;;
30888;SDS011;51092;50.874;7.024;2022-08-11T03:14:41;6.80;;;4.00;;
30888;SDS011;51092;50.874;7.024;2022-08-11T03:16:10;6.85;;;4.35;;
30888;SDS011;51092;50.874;7.024;2022-08-11T03:17:35;6.82;;;4.30;;
30888;SDS011;51092;50.874;7.024;2022-08-11T03:18:44;8.73;;;4.38;;
30888;SDS011;51092;50.874;7.024;2022-08-11T03:20:08;8.50;;;4.45;;
30888;SDS011;51092;50.874;7.024;2022-08-11T03:21:22;5.78;;;4.45;;
30888;SDS011;51092;50.874;7.024;2022-08-11T03:22:29;6.75;;;4.78;;
30888;SDS011;51092;50.874;7.024;2022-08-11T03:23:40;7.82;;;5.28;;
30888;SDS011;51092;50.874;7.024;2022-08-11T03:24:52;10.23;;;4.30;;
30888;SDS011;51092;50.874;7.024;2022-08-11T03:26:02;6.95;;;4.45;;
30888;SDS011;51092;50.874;7.024;2022-08-11T03:27:12;7.47;;;3.85;;
30888;SDS011;51092;50.874;7.024;2022-08-11T03:28:27;5.93;;;4.40;;
30888;SDS011;51092;50.874;7.024;2022-08-11T03:29:36;6.75;;;4.38;;
30888;SDS011;51092;50.874;7.024;2022-08-11T03:30:45;6.65;;;4.25;;
30888;SDS011;51092;50.874;7.024;2022-08-11T03:31:54;7.80;;;4.65;;
30888;SDS011;51092;50.874;7.024;2022-08-11T03:33:14;8.98;;;4.97;;
30888;SDS011;51092;50.874;7.024;2022-08-11T03:34:40;7.90;;;4.55;;
30888;SDS011;51092;50.874;7.024;2022-08-11T03:35:49;10.77;;;4.50;;
30888;SDS011;51092;50.874;7.024;2022-08-11T03:38:58;8.52;;;4.63;;
30888;SDS011;51092;50.874;7.024;2022-08-11T03:40:12;9.07;;;4.65;;
30888;SDS011;51092;50.874;7.024;2022-08-11T03:42:47;7.22;;;3.95;;
30888;SDS011;51092;50.874;7.024;2022-08-11T03:43:59;5.88;;;3.92;;
30888;SDS011;51092;50.874;7.024;2022-08-11T03:45:14;6.63;;;4.78;;
30888;SDS011;51092;50.874;7.024;2022-08-11T03:46:26;6.70;;;4.32;;
30888;SDS011;51092;50.874;7.024;2022-08-11T03:47:54;7.15;;;4.38;;
30888;SDS011;51092;50.874;7.024;2022-08-11T03:49:10;9.50;;;4.30;;
30888;SDS011;51092;50.874;7.024;2022-08-11T03:50:26;8.10;;;4.72;;
30888;SDS011;51092;50.874;7.024;2022-08-11T03:51:37;7.05;;;5.07;;
30888;SDS011;51092;50.874;7.024;2022-08-11T03:52:50;8.55;;;4.30;;
30888;SDS011;51092;50.874;7.024;2022-08-11T03:54:09;5.95;;;4.85;;
30888;SDS011;51092;50.874;7.024;2022-08-11T03:56:43;6.78;;;4.07;;
30888;SDS011;51092;50.874;7.024;2022-08-11T03:58:18;5.13;;;3.90;;
30888;SDS011;51092;50.874;7.024;2022-08-11T03:59:53;6.70;;;3.60;;
30888;SDS011;51092;50.874;7.024;2022-08-11T04:01:37;5.63;;;4.07;;
30888;SDS011;51092;50.874;7.024;2022-08-11T04:03:14;7.00;;;3.67;;
30888;SDS011;51092;50.874;7.024;2022-08-11T04:06:16;4.28;;;3.88;;
30888;SDS011;51092;50.874;7.024;2022-08-11T04:08:04;4.78;;;4.10;;
30888;SDS011;51092;50.874;7.024;2022-08-11T04:09:32;6.43;;;4.03;;
30888;SDS011;51092;50.874;7.024;2022-08-11T04:11:19;6.15;;;3.30;;
30888;SDS011;51092;50.874;7.024;2022-08-11T04:12:51;6.70;;;4.22;;
30888;SDS011;51092;50.874;7.024;2022-08-11T04:14:23;7.25;;;4.00;;
30888;SDS011;51092;50.874;7.024;2022-08-11T04:16:14;5.80;;;4.13;;
30888;SDS011;51092;50.874;7.024;2022-08-11T04:24:31;7.10;;;3.67;;
30888;SDS011;51092;50.874;7.024;2022-08-11T04:27:17;6.35;;;4.03;;
30888;SDS011;51092;50.874;7.024;2022-08-11T04:30:08;5.55;;;3.75;;
30888;SDS011;51092;50.874;7.024;2022-08-11T04:31:21;6.93;;;3.90;;
30888;SDS011;51092;50.874;7.024;2022-08-11T04:34:35;5.43;;;4.05;;
30888;SDS011;51092;50.874;7.024;2022-08-11T04:36:01;7.70;;;3.80;;
30888;SDS011;51092;50.874;7.024;2022-08-11T04:37:11;7.30;;;3.25;;
30888;SDS011;51092;50.874;7.024;2022-08-11T04:38:43;4.55;;;3.75;;
30888;SDS011;51092;50.874;7.024;2022-08-11T04:40:02;6.22;;;3.83;;
30888;SDS011;51092;50.874;7.024;2022-08-11T04:41:19;7.50;;;3.35;;
30888;SDS011;51092;50.874;7.024;2022-08-11T04:43:11;5.25;;;3.63;;
30888;SDS011;51092;50.874;7.024;2022-08-11T04:46:26;6.45;;;3.80;;
30888;SDS011;51092;50.874;7.024;2022-08-11T04:47:47;7.05;;;3.80;;
30888;SDS011;51092;50.874;7.024;2022-08-11T04:49:30;4.82;;;3.47;;
30888;SDS011;51092;50.874;7.024;2022-08-11T04:51:14;5.47;;;4.13;;
30888;SDS011;51092;50.874;7.024;2022-08-11T04:53:05;8.80;;;4.35;;
30888;SDS011;51092;50.874;7.024;2022-08-11T04:54:52;9.90;;;4.30;;
30888;SDS011;51092;50.874;7.024;2022-08-11T04:56:23;8.38;;;4.28;;
30888;SDS011;51092;50.874;7.024;2022-08-11T04:57:50;14.52;;;4.50;;
30888;SDS011;51092;50.874;7.024;2022-08-11T04:59:30;7.95;;;4.68;;
30888;SDS011;51092;50.874;7.024;2022-08-11T05:01:05;7.55;;;4.40;;
30888;SDS011;51092;50.874;7.024;2022-08-11T05:04:31;9.18;;;4.50;;
30888;SDS011;51092;50.874;7.024;2022-08-11T05:06:22;9.57;;;4.93;;
30888;SDS011;51092;50.874;7.024;2022-08-11T05:09:33;9.40;;;4.38;;
30888;SDS011;51092;50.874;7.024;2022-08-11T05:10:55;8.40;;;3.90;;
30888;SDS011;51092;50.874;7.024;2022-08-11T05:12:13;10.63;;;4.63;;
30888;SDS011;51092;50.874;7.024;2022-08-11T05:13:31;10.18;;;4.40;;
30888;SDS011;51092;50.874;7.024;2022-08-11T05:14:54;11.88;;;4.18;;
30888;SDS011;51092;50.874;7.024;2022-08-11T05:16:32;10.70;;;4.30;;
30888;SDS011;51092;50.874;7.024;2022-08-11T05:17:56;10.13;;;4.85;;
30888;SDS011;51092;50.874;7.024;2022-08-11T05:19:20;8.30;;;4.25;;
30888;SDS011;51092;50.874;7.024;2022-08-11T05:20:44;12.13;;;4.50;;
30888;SDS011;51092;50.874;7.024;2022-08-11T05:22:09;8.75;;;4.03;;
30888;SDS011;51092;50.874;7.024;2022-08-11T05:23:33;7.50;;;3.70;;
30888;SDS011;51092;50.874;7.024;2022-08-11T05:25:01;6.38;;;4.18;;
30888;SDS011;51092;50.874;7.024;2022-08-11T05:26:26;7.93;;;4.18;;
30888;SDS011;51092;50.874;7.024;2022-08-11T05:27:49;7.75;;;3.90;;
30888;SDS011;51092;50.874;7.024;2022-08-11T05:29:25;5.97;;;3.50;;
30888;SDS011;51092;50.874;7.024;2022-08-11T05:30:59;7.93;;;4.22;;
30888;SDS011;51092;50.874;7.024;2022-08-11T05:32:21;5.43;;;3.83;;
30888;SDS011;51092;50.874;7.024;2022-08-11T05:33:44;7.60;;;3.28;;
30888;SDS011;51092;50.874;7.024;2022-08-11T05:35:07;8.27;;;3.80;;
30888;SDS011;51092;50.874;7.024;2022-08-11T05:36:14;7.72;;;4.13;;
30888;SDS011;51092;50.874;7.024;2022-08-11T05:37:21;10.15;;;4.55;;
30888;SDS011;51092;50.874;7.024;2022-08-11T05:38:33;9.70;;;4.72;;
30888;SDS011;51092;50.874;7.024;2022-08-11T05:39:56;7.68;;;4.65;;
30888;SDS011;51092;50.874;7.024;2022-08-11T05:41:24;16.13;;;5.55;;
30888;SDS011;51092;50.874;7.024;2022-08-11T05:42:47;7.95;;;4.10;;
30888;SDS011;51092;50.874;7.024;2022-08-11T05:44:09;8.93;;;4.20;;
30888;SDS011;51092;50.874;7.024;2022-08-11T05:45:37;7.63;;;4.20;;
30888;SDS011;51092;50.874;7.024;2022-08-11T05:48:20;6.10;;;3.65;;
30888;SDS011;51092;50.874;7.024;2022-08-11T05:49:47;6.50;;;3.92;;
30888;SDS011;51092;50.874;7.024;2022-08-11T05:51:08;7.18;;;4.03;;
30888;SDS011;51092;50.874;7.024;2022-08-11T05:52:29;7.38;;;3.70;;
30888;SDS011;51092;50.874;7.024;2022-08-11T05:53:51;9.57;;;4.20;;
30888;SDS011;51092;50.874;7.024;2022-08-11T05:55:13;7.95;;;4.30;;
30888;SDS011;51092;50.874;7.024;2022-08-11T05:56:39;4.47;;;3.33;;
30888;SDS011;51092;50.874;7.024;2022-08-11T05:57:45;10.18;;;3.90;;
30888;SDS011;51092;50.874;7.024;2022-08-11T05:58:48;7.25;;;4.07;;
30888;SDS011;51092;50.874;7.024;2022-08-11T05:59:57;7.50;;;3.85;;
30888;SDS011;51092;50.874;7.024;2022-08-11T06:01:01;6.50;;;3.35;;
30888;SDS011;51092;50.874;7.024;2022-08-11T06:02:05;6.97;;;3.53;;
30888;SDS011;51092;50.874;7.024;2022-08-11T06:03:09;6.43;;;3.65;;
30888;SDS011;51092;50.874;7.024;2022-08-11T06:04:14;5.22;;;4.15;;
30888;SDS011;51092;50.874;7.024;2022-08-11T06:05:18;5.57;;;3.88;;
30888;SDS011;51092;50.874;7.024;2022-08-11T06:06:21;5.90;;;3.95;;
30888;SDS011;51092;50.874;7.024;2022-08-11T06:07:26;4.70;;;3.63;;
30888;SDS011;51092;50.874;7.024;2022-08-11T06:08:31;5.13;;;3.88;;
30888;SDS011;51092;50.874;7.024;2022-08-11T06:09:46;5.00;;;3.78;;
30888;SDS011;51092;50.874;7.024;2022-08-11T06:10:50;8.20;;;3.70;;
30888;SDS011;51092;50.874;7.024;2022-08-11T06:11:52;9.55;;;4.30;;
30888;SDS011;51092;50.874;7.024;2022-08-11T06:12:57;5.15;;;3.42;;
30888;SDS011;51092;50.874;7.024;2022-08-11T06:14:00;7.45;;;3.85;;
30888;SDS011;51092;50.874;7.024;2022-08-11T06:15:05;9.20;;;4.55;;
30888;SDS011;51092;50.874;7.024;2022-08-11T06:16:10;12.40;;;6.88;;
30888;SDS011;51092;50.874;7.024;2022-08-11T06:17:20;9.63;;;3.75;;
30888;SDS011;51092;50.874;7.024;2022-08-11T06:18:23;7.55;;;3.85;;
30888;SDS011;51092;50.874;7.024;2022-08-11T06:19:35;8.90;;;4.13;;
30888;SDS011;51092;50.874;7.024;2022-08-11T06:20:44;10.68;;;4.35;;
30888;SDS011;51092;50.874;7.024;2022-08-11T06:21:47;6.00;;;3.47;;
30888;SDS011;51092;50.874;7.024;2022-08-11T06:22:57;10.55;;;3.83;;
30888;SDS011;51092;50.874;7.024;2022-08-11T06:24:02;7.90;;;4.00;;
30888;SDS011;51092;50.874;7.024;2022-08-11T06:25:12;7.82;;;3.97;;
30888;SDS011;51092;50.874;7.024;2022-08-11T06:26:16;13.63;;;3.55;;
30888;SDS011;51092;50.874;7.024;2022-08-11T06:27:20;7.75;;;4.32;;
30888;SDS011;51092;50.874;7.024;2022-08-11T06:28:28;4.95;;;3.80;;
30888;SDS011;51092;50.874;7.024;2022-08-11T06:29:32;11.52;;;4.00;;
30888;SDS011;51092;50.874;7.024;2022-08-11T06:30:43;9.02;;;4.38;;
30888;SDS011;51092;50.874;7.024;2022-08-11T06:31:50;7.57;;;4.10;;
30888;SDS011;51092;50.874;7.024;2022-08-11T06:32:55;10.00;;;3.45;;
30888;SDS011;51092;50.874;7.024;2022-08-11T06:33:58;6.10;;;3.70;;
30888;SDS011;51092;50.874;7.024;2022-08-11T06:35:14;8.98;;;3.75;;
30888;SDS011;51092;50.874;7.024;2022-08-11T06:36:22;6.10;;;3.22;;
30888;SDS011;51092;50.874;7.024;2022-08-11T06:37:38;5.20;;;3.65;;
30888;SDS011;51092;50.874;7.024;2022-08-11T06:38:49;6.50;;;3.92;;
30888;SDS011;51092;50.874;7.024;2022-08-11T06:40:03;8.10;;;5.30;;
30888;SDS011;51092;50.874;7.024;2022-08-11T06:41:11;6.60;;;3.58;;
30888;SDS011;51092;50.874;7.024;2022-08-11T06:42:35;6.25;;;3.72;;
30888;SDS011;51092;50.874;7.024;2022-08-11T06:43:47;7.00;;;3.63;;
30888;SDS011;51092;50.874;7.024;2022-08-11T06:44:53;6.47;;;3.63;;
30888;SDS011;51092;50.874;7.024;2022-08-11T06:46:07;9.40;;;4.93;;
30888;SDS011;51092;50.874;7.024;2022-08-11T06:47:12;4.00;;;3.28;;
30888;SDS011;51092;50.874;7.024;2022-08-11T06:48:20;9.60;;;4.13;;
30888;SDS011;51092;50.874;7.024;2022-08-11T06:49:31;12.90;;;3.55;;
30888;SDS011;51092;50.874;7.024;2022-08-11T06:50:56;8.63;;;3.58;;
30888;SDS011;51092;50.874;7.024;2022-08-11T06:52:13;9.95;;;3.67;;
30888;SDS011;51092;50.874;7.024;2022-08-11T06:53:18;6.55;;;3.70;;
30888;SDS011;51092;50.874;7.024;2022-08-11T06:54:22;11.88;;;3.47;;
30888;SDS011;51092;50.874;7.024;2022-08-11T06:55:26;5.68;;;3.35;;
30888;SDS011;51092;50.874;7.024;2022-08-11T06:56:44;6.15;;;4.00;;
30888;SDS011;51092;50.874;7.024;2022-08-11T06:58:06;7.90;;;3.83;;
30888;SDS011;51092;50.874;7.024;2022-08-11T06:59:38;10.20;;;3.72;;
30888;SDS011;51092;50.874;7.024;2022-08-11T07:01:04;12.15;;;5.18;;
30888;SDS011;51092;50.874;7.024;2022-08-11T07:02:12;5.88;;;3.50;;
30888;SDS011;51092;50.874;7.024;2022-08-11T07:03:19;5.18;;;3.72;;
30888;SDS011;51092;50.874;7.024;2022-08-11T07:04:26;6.70;;;3.63;;
30888;SDS011;51092;50.874;7.024;2022-08-11T07:05:37;11.68;;;4.07;;
30888;SDS011;51092;50.874;7.024;2022-08-11T07:06:54;8.13;;;3.60;;
30888;SDS011;51092;50.874;7.024;2022-08-11T07:08:34;9.80;;;3.63;;
30888;SDS011;51092;50.874;7.024;2022-08-11T07:10:20;8.68;;;3.75;;
30888;SDS011;51092;50.874;7.024;2022-08-11T07:11:54;4.18;;;3.03;;
30888;SDS011;51092;50.874;7.024;2022-08-11T07:13:20;7.10;;;3.67;;
30888;SDS011;51092;50.874;7.024;2022-08-11T07:14:45;8.60;;;3.17;;
30888;SDS011;51092;50.874;7.024;2022-08-11T07:16:09;10.68;;;3.05;;
30888;SDS011;51092;50.874;7.024;2022-08-11T07:17:15;5.53;;;2.95;;
30888;SDS011;51092;50.874;7.024;2022-08-11T07:18:23;4.18;;;3.42;;
30888;SDS011;51092;50.874;7.024;2022-08-11T07:19:46;5.22;;;3.10;;
30888;SDS011;51092;50.874;7.024;2022-08-11T07:21:11;8.23;;;3.50;;
30888;SDS011;51092;50.874;7.024;2022-08-11T07:22:33;4.88;;;3.10;;
30888;SDS011;51092;50.874;7.024;2022-08-11T07:23:54;7.65;;;3.53;;
30888;SDS011;51092;50.874;7.024;2022-08-11T07:25:16;6.22;;;2.88;;
30888;SDS011;51092;50.874;7.024;2022-08-11T07:28:00;12.73;;;3.40;;
30888;SDS011;51092;50.874;7.024;2022-08-11T07:29:21;6.47;;;3.53;;
30888;SDS011;51092;50.874;7.024;2022-08-11T07:30:26;7.75;;;3.50;;
30888;SDS011;51092;50.874;7.024;2022-08-11T07:31:30;7.57;;;3.45;;
30888;SDS011;51092;50.874;7.024;2022-08-11T07:32:36;4.53;;;2.90;;
30888;SDS011;51092;50.874;7.024;2022-08-11T07:33:46;4.00;;;2.95;;
30888;SDS011;51092;50.874;7.024;2022-08-11T07:34:54;6.60;;;2.92;;
30888;SDS011;51092;50.874;7.024;2022-08-11T07:35:59;9.35;;;3.50;;
30888;SDS011;51092;50.874;7.024;2022-08-11T07:37:08;10.77;;;3.10;;
30888;SDS011;51092;50.874;7.024;2022-08-11T07:38:15;4.93;;;3.00;;
30888;SDS011;51092;50.874;7.024;2022-08-11T07:39:23;10.48;;;3.15;;
30888;SDS011;51092;50.874;7.024;2022-08-11T07:40:27;11.60;;;3.65;;
30888;SDS011;51092;50.874;7.024;2022-08-11T07:41:32;5.85;;;3.10;;
30888;SDS011;51092;50.874;7.024;2022-08-11T07:42:37;11.00;;;3.53;;
30888;SDS011;51092;50.874;7.024;2022-08-11T07:43:48;8.63;;;3.15;;
30888;SDS011;51092;50.874;7.024;2022-08-11T07:44:51;7.28;;;3.17;;
30888;SDS011;51092;50.874;7.024;2022-08-11T07:46:14;7.20;;;2.70;;
30888;SDS011;51092;50.874;7.024;2022-08-11T07:47:35;10.52;;;3.45;;
30888;SDS011;51092;50.874;7.024;2022-08-11T07:48:59;5.68;;;3.05;;
30888;SDS011;51092;50.874;7.024;2022-08-11T07:50:21;4.90;;;2.88;;
30888;SDS011;51092;50.874;7.024;2022-08-11T07:51:42;9.85;;;3.47;;
30888;SDS011;51092;50.874;7.024;2022-08-11T07:53:03;11.90;;;3.00;;
30888;SDS011;51092;50.874;7.024;2022-08-11T07:54:05;3.92;;;2.90;;
30888;SDS011;51092;50.874;7.024;2022-08-11T07:55:11;4.95;;;2.88;;
30888;SDS011;51092;50.874;7.024;2022-08-11T07:56:14;9.65;;;3.13;;
30888;SDS011;51092;50.874;7.024;2022-08-11T07:57:19;9.40;;;3.47;;
30888;SDS011;51092;50.874;7.024;2022-08-11T07:58:39;8.55;;;2.67;;
30888;SDS011;51092;50.874;7.024;2022-08-11T07:59:59;8.32;;;3.00;;
30888;SDS011;51092;50.874;7.024;2022-08-11T08:01:20;7.53;;;2.88;;
30888;SDS011;51092;50.874;7.024;2022-08-11T08:02:42;7.15;;;3.08;;
30888;SDS011;51092;50.874;7.024;2022-08-11T08:04:04;10.30;;;2.85;;
30888;SDS011;51092;50.874;7.024;2022-08-11T08:05:26;6.22;;;2.92;;
30888;SDS011;51092;50.874;7.024;2022-08-11T08:06:47;7.07;;;2.38;;
30888;SDS011;51092;50.874;7.024;2022-08-11T08:08:07;8.43;;;3.63;;
30888;SDS011;51092;50.874;7.024;2022-08-11T08:09:27;5.93;;;2.67;;
30888;SDS011;51092;50.874;7.024;2022-08-11T08:10:52;13.23;;;3.22;;
30888;SDS011;51092;50.874;7.024;2022-08-11T08:12:15;13.68;;;3.13;;
30888;SDS011;51092;50.874;7.024;2022-08-11T08:13:35;10.32;;;2.55;;
30888;SDS011;51092;50.874;7.024;2022-08-11T08:14:56;8.43;;;2.72;;
30888;SDS011;51092;50.874;7.024;2022-08-11T08:16:16;8.25;;;3.15;;
30888;SDS011;51092;50.874;7.024;2022-08-11T08:17:37;7.20;;;2.65;;
30888;SDS011;51092;50.874;7.024;2022-08-11T08:18:56;12.57;;;2.95;;
30888;SDS011;51092;50.874;7.024;2022-08-11T08:20:00;7.07;;;2.75;;
30888;SDS011;51092;50.874;7.024;2022-08-11T08:21:03;7.75;;;2.53;;
30888;SDS011;51092;50.874;7.024;2022-08-11T08:22:12;4.93;;;2.70;;
30888;SDS011;51092;50.874;7.024;2022-08-11T08:23:17;10.25;;;2.72;;
30888;SDS011;51092;50.874;7.024;2022-08-11T08:24:32;11.50;;;3.42;;
30888;SDS011;51092;50.874;7.024;2022-08-11T08:25:37;6.20;;;2.75;;
30888;SDS011;51092;50.874;7.024;2022-08-11T08:26:41;5.63;;;3.08;;
30888;SDS011;51092;50.874;7.024;2022-08-11T08:28:00;10.68;;;3.33;;
30888;SDS011;51092;50.874;7.024;2022-08-11T08:29:07;8.65;;;2.88;;
30888;SDS011;51092;50.874;7.024;2022-08-11T08:30:27;9.75;;;2.85;;